Time;durP1;ratioP1;P1;durP2;ratioP2;P2;SDS_P1;SDS_P2;PMS_P1;PMS_P2;Temp;Humidity;BMP_temperature;BMP_pressure;BME280_temperature;BME280_humidity;BME280_pressure;Samples;Min_cycle;Max_cycle;Signal;HPM_P1;HPM_P2
2021/03/21 00:02:55;;;;;;;65.23;23.70;;;;;;;-4.84;57.95;99314.47;2218808;80;21224;-79
2021/03/21 00:05:56;;;;;;;72.07;26.40;;;;;;;-4.82;57.95;99298.92;2218860;80;21420;-79
2021/03/21 00:08:57;;;;;;;52.30;21.10;;;;;;;-4.78;57.83;99306.42;2218540;80;21150;-78
2021/03/21 00:12:01;;;;;;;60.93;22.90;;;;;;;-4.77;57.91;99294.58;2218182;80;21110;-78
2021/03/21 00:15:02;;;;;;;61.97;23.80;;;;;;;-4.82;57.92;99290.01;2218494;80;21546;-78
2021/03/21 00:18:05;;;;;;;61.87;23.77;;;;;;;-4.81;57.91;99281.98;2218318;80;21583;-78
2021/03/21 00:21:06;;;;;;;58.13;22.57;;;;;;;-4.79;57.95;99272.80;2218535;80;21134;-78
2021/03/21 00:24:10;;;;;;;57.97;23.20;;;;;;;-4.80;58.31;99272.30;2218345;80;21241;-78
2021/03/21 00:27:11;;;;;;;56.53;23.43;;;;;;;-4.81;58.21;99269.25;2218248;80;21511;-78
2021/03/21 00:30:16;;;;;;;58.13;22.17;;;;;;;-4.81;58.30;99267.59;2218356;80;21157;-77
2021/03/21 00:33:17;;;;;;;61.92;24.30;;;;;;;-4.82;58.37;99264.55;2218556;80;21113;-78
2021/03/21 00:36:18;;;;;;;67.47;24.90;;;;;;;-4.83;58.52;99255.52;2213288;80;21162;-78
2021/03/21 00:39:22;;;;;;;59.73;23.70;;;;;;;-4.84;58.56;99253.73;2211123;80;21519;-79
2021/03/21 00:42:23;;;;;;;57.80;24.00;;;;;;;-4.85;58.73;99249.03;2211311;80;21241;-78
2021/03/21 00:45:24;;;;;;;60.40;22.13;;;;;;;-4.88;59.13;99246.63;2211252;80;21111;-80
2021/03/21 00:48:25;;;;;;;63.47;23.37;;;;;;;-4.91;59.36;99238.75;2210610;80;21110;-78
2021/03/21 00:51:26;;;;;;;60.80;22.13;;;;;;;-4.91;59.34;99237.48;2210816;81;21284;-78
2021/03/21 00:54:27;;;;;;;57.57;23.00;;;;;;;-4.87;59.40;99228.03;2210894;80;21078;-78
2021/03/21 00:57:28;;;;;;;54.33;20.23;;;;;;;-4.83;59.42;99223.68;2210741;80;21241;-78
2021/03/21 01:00:29;;;;;;;63.27;23.63;;;;;;;-4.82;59.41;99215.27;2211180;80;21252;-80
2021/03/21 01:03:30;;;;;;;48.70;20.27;;;;;;;-4.85;59.51;99207.02;2211501;80;21237;-78
2021/03/21 01:06:32;;;;;;;59.53;21.10;;;;;;;-4.82;59.80;99202.53;2210956;80;21508;-78
2021/03/21 01:09:33;;;;;;;54.60;22.63;;;;;;;-4.84;59.70;99197.71;2211454;80;21280;-79
2021/03/21 01:12:34;;;;;;;48.93;19.70;;;;;;;-4.84;59.83;99191.34;2211100;80;21240;-78
2021/03/21 01:15:35;;;;;;;53.90;19.90;;;;;;;-4.84;59.95;99183.70;2210989;80;21237;-78
2021/03/21 01:18:36;;;;;;;56.63;21.07;;;;;;;-4.85;60.11;99171.36;2210795;80;21233;-78
2021/03/21 01:21:43;;;;;;;55.93;19.97;;;;;;;-4.82;60.16;99164.34;2210883;80;21154;-79
2021/03/21 01:24:43;;;;;;;47.00;18.60;;;;;;;-4.81;60.18;99155.93;2209827;80;21265;-78
2021/03/21 01:27:44;;;;;;;50.37;18.63;;;;;;;-4.80;60.36;99155.16;2211244;80;21277;-79
2021/03/21 01:30:45;;;;;;;48.53;19.63;;;;;;;-4.82;60.61;99145.23;2211531;80;21149;-80
2021/03/21 01:33:46;;;;;;;40.73;17.07;;;;;;;-4.85;60.72;99145.01;2211416;80;21138;-80
2021/03/21 01:36:47;;;;;;;51.43;20.20;;;;;;;-4.87;61.14;99141.45;2216226;80;21146;-79
2021/03/21 01:39:48;;;;;;;46.10;18.97;;;;;;;-4.89;60.96;99136.63;2218753;80;21122;-80
2021/03/21 01:42:49;;;;;;;50.53;18.33;;;;;;;-4.88;61.11;99130.77;2219346;80;21114;-80
2021/03/21 01:45:50;;;;;;;39.83;17.77;;;;;;;-4.85;61.25;99118.27;2218798;80;21129;-80
2021/03/21 01:48:54;;;;;;;37.87;16.23;;;;;;;-4.84;61.21;99115.84;2218906;80;21098;-80
2021/03/21 01:51:56;;;;;;;39.80;16.73;;;;;;;-4.85;61.50;99111.91;2219403;80;21464;-79
2021/03/21 01:54:57;;;;;;;45.73;17.37;;;;;;;-4.88;61.56;99104.03;2218803;80;21126;-80
2021/03/21 01:57:58;;;;;;;38.77;16.87;;;;;;;-4.91;61.84;99101.26;2218926;80;21078;-79
2021/03/21 02:00:59;;;;;;;39.90;18.53;;;;;;;-4.94;62.01;99090.45;2218815;80;21114;-79
2021/03/21 02:04:00;;;;;;;38.40;17.40;;;;;;;-4.97;62.19;99091.88;2218905;80;21110;-79
2021/03/21 02:07:01;;;;;;;39.23;17.43;;;;;;;-4.99;62.20;99086.67;2219324;80;21122;-79
2021/03/21 02:10:04;;;;;;;39.47;17.00;;;;;;;-4.99;62.72;99082.86;2218759;80;21416;-79
2021/03/21 02:13:06;;;;;;;36.77;17.00;;;;;;;-5.00;62.56;99075.10;2219141;80;21141;-79
2021/03/21 02:16:07;;;;;;;42.93;17.87;;;;;;;-5.02;62.70;99072.44;2218999;80;21158;-79
2021/03/21 02:19:08;;;;;;;45.30;17.23;;;;;;;-5.02;62.70;99063.92;2218923;80;21376;-79
2021/03/21 02:22:12;;;;;;;41.53;19.17;;;;;;;-5.03;63.02;99053.23;2218842;80;21126;-79
2021/03/21 02:25:13;;;;;;;42.43;17.60;;;;;;;-5.02;62.92;99057.17;2219118;80;21361;-79
2021/03/21 02:28:17;;;;;;;47.33;19.10;;;;;;;-5.04;62.90;99043.44;2219071;80;21113;-79
2021/03/21 02:31:18;;;;;;;47.97;18.97;;;;;;;-5.05;63.33;99031.87;2219871;80;21464;-79
2021/03/21 02:34:19;;;;;;;44.37;18.93;;;;;;;-5.06;63.41;99031.37;2219296;80;21131;-79
2021/03/21 02:37:21;;;;;;;43.60;17.70;;;;;;;-5.07;63.68;99024.50;2213031;80;21138;-79
2021/03/21 02:40:22;;;;;;;43.07;16.67;;;;;;;-5.07;63.42;99011.77;2211862;80;21215;-79
2021/03/21 02:43:25;;;;;;;38.53;16.93;;;;;;;-5.05;63.76;99010.23;2212212;80;21110;-79
2021/03/21 02:46:26;;;;;;;42.67;17.17;;;;;;;-5.04;63.61;99001.83;2212154;80;21150;-79
2021/03/21 02:49:27;;;;;;;44.10;17.47;;;;;;;-5.04;63.59;99002.71;2212162;81;21456;-79
2021/03/21 02:52:29;;;;;;;45.77;19.37;;;;;;;-5.02;63.53;98997.34;2211775;80;21114;-80
2021/03/21 02:55:30;;;;;;;47.30;18.60;;;;;;;-5.02;63.53;98989.70;2212094;80;21122;-79
2021/03/21 02:58:34;;;;;;;48.27;19.57;;;;;;;-5.02;63.78;98988.44;2212230;80;21399;-79
2021/03/21 03:01:35;;;;;;;35.57;16.30;;;;;;;-5.01;63.36;98985.50;2212043;80;21138;-80
2021/03/21 03:04:36;;;;;;;45.53;18.67;;;;;;;-5.01;63.66;98975.32;2210890;81;21138;-79
2021/03/21 03:07:37;;;;;;;40.53;16.40;;;;;;;-5.03;64.12;98969.23;2211055;80;21499;-79
2021/03/21 03:10:38;;;;;;;46.97;20.30;;;;;;;-5.04;63.71;98964.91;2210978;81;21566;-79
2021/03/21 03:13:39;;;;;;;41.20;18.83;;;;;;;-5.05;63.98;98959.32;2211066;80;21126;-80
2021/03/21 03:16:40;;;;;;;45.00;19.97;;;;;;;-5.07;63.78;98949.41;2211525;80;21158;-80
2021/03/21 03:19:41;;;;;;;45.70;18.33;;;;;;;-5.07;63.77;98946.87;2212315;80;21122;-79
2021/03/21 03:22:42;;;;;;;46.70;18.83;;;;;;;-5.09;63.84;98935.30;2211673;80;21083;-78
2021/03/21 03:25:44;;;;;;;46.27;18.20;;;;;;;-5.08;63.55;98928.16;2211493;80;21117;-78
2021/03/21 03:28:45;;;;;;;48.33;18.67;;;;;;;-5.10;63.64;98916.98;2211431;80;21146;-78
2021/03/21 03:31:46;;;;;;;45.63;18.13;;;;;;;-5.09;63.47;98919.14;2211363;80;21174;-78
2021/03/21 03:34:47;;;;;;;55.67;21.47;;;;;;;-5.08;63.46;98913.28;2212024;80;21110;-80
2021/03/21 03:37:51;;;;;;;48.10;20.13;;;;;;;-5.08;63.33;98914.55;2211934;80;21420;-79
2021/03/21 03:40:52;;;;;;;48.50;19.33;;;;;;;-5.08;63.18;98903.09;2212047;80;21118;-79
2021/03/21 03:43:57;;;;;;;51.47;20.40;;;;;;;-5.05;63.01;98898.23;2211897;80;21142;-78
2021/03/21 03:46:58;;;;;;;44.80;19.13;;;;;;;-5.05;62.80;98894.41;2211936;81;21138;-78
2021/03/21 03:49:59;;;;;;;59.73;22.57;;;;;;;-5.03;62.82;98891.59;2211734;80;21165;-78
2021/03/21 03:53:00;;;;;;;47.90;19.47;;;;;;;-5.03;62.61;98894.14;2212218;80;21122;-79
2021/03/21 03:56:02;;;;;;;49.03;18.43;;;;;;;-5.03;62.54;98887.77;2212058;80;21119;-79
2021/03/21 03:59:05;;;;;;;54.03;22.07;;;;;;;-5.03;62.40;98878.48;2212004;80;21412;-80
2021/03/21 04:02:06;;;;;;;53.20;20.73;;;;;;;-5.03;62.21;98880.14;2211571;80;21265;-80
2021/03/21 04:05:07;;;;;;;56.40;25.27;;;;;;;-4.99;62.05;98870.29;2212063;81;21123;-79
2021/03/21 04:08:08;;;;;;;52.77;22.13;;;;;;;-4.93;62.01;98852.02;2212522;80;21241;-80
2021/03/21 04:11:09;;;;;;;57.37;22.23;;;;;;;-4.88;61.81;98846.88;2211980;80;21150;-79
2021/03/21 04:14:10;;;;;;;57.43;23.33;;;;;;;-4.81;61.55;98843.59;2212062;80;21126;-79
2021/03/21 04:17:11;;;;;;;55.53;22.73;;;;;;;-4.71;61.34;98836.61;2212077;80;21146;-79
2021/03/21 04:20:15;;;;;;;69.80;25.90;;;;;;;-4.60;61.02;98824.23;2212203;80;21110;-80
2021/03/21 04:23:16;;;;;;;60.63;25.03;;;;;;;-4.50;60.84;98821.55;2212135;81;21118;-80
2021/03/21 04:26:17;;;;;;;63.13;25.43;;;;;;;-4.39;60.17;98830.83;2212037;80;21185;-79
2021/03/21 04:29:21;;;;;;;56.37;23.80;;;;;;;-4.30;60.34;98822.97;2212079;80;21178;-80
2021/03/21 04:32:24;;;;;;;59.13;25.10;;;;;;;-4.21;60.18;98814.29;2211949;80;21129;-79
2021/03/21 04:35:25;;;;;;;65.23;26.20;;;;;;;-4.09;59.98;98806.59;2212256;80;21126;-79
2021/03/21 04:38:26;;;;;;;57.17;23.10;;;;;;;-4.00;59.42;98790.64;2218773;80;21345;-79
2021/03/21 04:41:27;;;;;;;52.60;23.27;;;;;;;-3.95;59.19;98782.91;2219293;80;21118;-80
2021/03/21 04:44:30;;;;;;;65.97;26.70;;;;;;;-3.91;58.75;98786.16;2219593;80;21110;-79
2021/03/21 04:47:32;;;;;;;58.10;24.00;;;;;;;-3.82;58.94;98788.44;2218824;80;21138;-79
2021/03/21 04:50:33;;;;;;;61.93;26.60;;;;;;;-3.71;58.86;98787.48;2219212;80;21169;-79
2021/03/21 04:53:35;;;;;;;67.47;26.57;;;;;;;-3.65;58.46;98781.50;2218930;80;21109;-79
2021/03/21 04:56:38;;;;;;;62.40;26.67;;;;;;;-3.58;58.46;98780.23;2219035;80;21158;-79
2021/03/21 04:59:39;;;;;;;64.57;26.13;;;;;;;-3.51;58.29;98769.65;2218982;80;21118;-79
2021/03/21 05:02:40;;;;;;;56.20;24.90;;;;;;;-3.43;58.02;98767.23;2219028;80;21154;-79
2021/03/21 05:05:42;;;;;;;66.63;28.80;;;;;;;-3.35;57.49;98764.78;2217818;80;21415;-79
2021/03/21 05:08:43;;;;;;;67.97;26.77;;;;;;;-3.28;57.37;98763.51;2219080;80;21126;-80
2021/03/21 05:11:44;;;;;;;63.93;27.00;;;;;;;-3.23;57.07;98763.41;2218781;80;21141;-81
2021/03/21 05:14:45;;;;;;;75.97;28.73;;;;;;;-3.21;56.95;98756.34;2218886;80;21110;-80
2021/03/21 05:17:46;;;;;;;79.03;29.27;;;;;;;-3.19;56.81;98749.17;2217547;80;21213;-80
2021/03/21 05:20:47;;;;;;;56.87;23.80;;;;;;;-3.13;56.87;98748.28;2217699;80;21118;-79
2021/03/21 05:23:48;;;;;;;72.07;27.70;;;;;;;-3.02;56.37;98753.67;2217661;80;21106;-79
2021/03/21 05:26:50;;;;;;;67.30;26.67;;;;;;;-2.97;56.36;98742.07;2218241;80;21122;-79
2021/03/21 05:29:51;;;;;;;68.97;29.20;;;;;;;-2.93;56.20;98742.75;2218734;80;21153;-80
2021/03/21 05:32:52;;;;;;;66.03;25.37;;;;;;;-2.88;56.00;98741.38;2219135;80;21125;-80
2021/03/21 05:35:53;;;;;;;63.83;25.70;;;;;;;-2.84;55.59;98741.16;2219130;80;21130;-80
2021/03/21 05:38:54;;;;;;;69.90;27.57;;;;;;;-2.80;55.63;98736.34;2219202;80;21126;-80
2021/03/21 05:41:55;;;;;;;53.90;23.43;;;;;;;-2.72;55.26;98727.48;2219116;80;21114;-81
2021/03/21 05:44:56;;;;;;;72.83;26.77;;;;;;;-2.64;55.24;98714.77;2218898;80;21421;-79
2021/03/21 05:47:57;;;;;;;66.57;27.00;;;;;;;-2.53;55.30;98713.30;2218270;80;21154;-79
2021/03/21 05:50:58;;;;;;;56.73;25.50;;;;;;;-2.38;55.08;98710.38;2218659;80;21292;-79
2021/03/21 05:53:59;;;;;;;53.83;23.90;;;;;;;-2.19;54.54;98704.69;2217848;80;21126;-78
2021/03/21 05:57:00;;;;;;;60.20;24.67;;;;;;;-2.10;54.10;98688.20;2217921;80;21109;-78
2021/03/21 06:00:01;;;;;;;57.83;23.90;;;;;;;-2.00;54.18;98687.95;2218041;80;21264;-78
2021/03/21 06:03:02;;;;;;;53.43;24.10;;;;;;;-1.92;54.02;98684.16;2217117;80;21110;-77
2021/03/21 06:06:03;;;;;;;53.37;23.93;;;;;;;-1.84;53.73;98683.31;2216784;80;21090;-77
2021/03/21 06:09:04;;;;;;;41.93;19.17;;;;;;;-1.73;53.43;98681.41;2217214;80;21130;-78
2021/03/21 06:12:05;;;;;;;52.17;21.17;;;;;;;-1.61;52.63;98667.63;2218151;80;21114;-78
2021/03/21 06:15:06;;;;;;;44.60;19.53;;;;;;;-1.52;52.43;98662.14;2218428;80;21538;-78
2021/03/21 06:18:08;;;;;;;40.17;19.20;;;;;;;-1.41;52.13;98655.05;2218131;80;21448;-77
2021/03/21 06:21:09;;;;;;;50.90;19.73;;;;;;;-1.33;52.11;98661.48;2218232;80;21106;-78
2021/03/21 06:24:15;;;;;;;39.13;19.50;;;;;;;-1.27;52.11;98657.09;2218619;80;21249;-78
2021/03/21 06:27:16;;;;;;;36.43;17.00;;;;;;;-1.11;52.02;98650.72;2218233;80;21240;-78
2021/03/21 06:30:17;;;;;;;41.93;18.37;;;;;;;-0.92;51.24;98639.38;2218632;80;21162;-78
2021/03/21 06:33:18;;;;;;;45.10;19.53;;;;;;;-0.82;51.16;98635.65;2218604;80;21113;-78
2021/03/21 06:36:19;;;;;;;42.23;18.93;;;;;;;-0.72;50.89;98638.78;2217082;80;21142;-78
2021/03/21 06:39:20;;;;;;;33.77;17.80;;;;;;;-0.66;51.00;98635.25;2210737;80;21119;-78
2021/03/21 06:42:21;;;;;;;34.33;17.93;;;;;;;-0.62;50.38;98634.13;2209968;80;21130;-77
2021/03/21 06:45:22;;;;;;;34.27;16.27;;;;;;;-0.55;50.96;98628.11;2210127;80;21150;-78
2021/03/21 06:48:24;;;;;;;36.33;17.53;;;;;;;-0.51;50.10;98618.90;2209948;80;21261;-78
2021/03/21 06:51:25;;;;;;;35.00;16.13;;;;;;;-0.41;50.32;98615.59;2210197;80;21324;-78
2021/03/21 06:54:26;;;;;;;34.10;16.43;;;;;;;-0.34;49.23;98617.67;2210516;80;21106;-78
2021/03/21 06:57:27;;;;;;;32.13;16.30;;;;;;;-0.22;49.60;98612.27;2211375;80;21240;-78
2021/03/21 07:00:28;;;;;;;31.70;15.50;;;;;;;-0.13;49.61;98614.41;2211408;80;21116;-79
2021/03/21 07:03:29;;;;;;;30.87;16.00;;;;;;;-0.07;48.94;98610.47;2211753;80;21118;-77
2021/03/21 07:06:30;;;;;;;34.10;15.50;;;;;;;-0.14;49.02;98605.84;2211408;80;21146;-77
2021/03/21 07:09:31;;;;;;;33.17;14.83;;;;;;;-0.11;48.86;98612.41;2211361;80;21163;-78
2021/03/21 07:12:32;;;;;;;30.10;16.90;;;;;;;-0.05;49.06;98605.41;2210518;80;21126;-77
2021/03/21 07:15:33;;;;;;;32.07;14.80;;;;;;;-0.02;48.86;98592.73;2209740;80;21138;-77
2021/03/21 07:18:34;;;;;;;25.60;14.13;;;;;;;0.10;48.99;98583.09;2209818;80;21265;-77
2021/03/21 07:21:36;;;;;;;21.57;12.40;;;;;;;0.20;48.51;98585.70;2209869;81;21386;-77
2021/03/21 07:24:37;;;;;;;33.87;15.10;;;;;;;0.23;47.95;98588.02;2210106;80;21554;-77
2021/03/21 07:27:38;;;;;;;30.90;16.07;;;;;;;0.18;48.14;98579.21;2210965;80;21138;-78
2021/03/21 07:30:39;;;;;;;25.50;12.80;;;;;;;0.21;48.19;98577.20;2211383;81;21149;-77
2021/03/21 07:33:43;;;;;;;25.73;12.90;;;;;;;0.22;48.32;98578.95;2211561;80;21134;-77
2021/03/21 07:36:44;;;;;;;21.70;12.30;;;;;;;0.16;48.29;98575.69;2212663;80;21257;-78
2021/03/21 07:39:45;;;;;;;25.10;13.77;;;;;;;0.23;48.39;98581.59;2218671;80;21523;-77
2021/03/21 07:42:46;;;;;;;24.23;13.67;;;;;;;0.34;48.57;98581.23;2218865;80;21122;-78
2021/03/21 07:45:50;;;;;;;21.87;11.27;;;;;;;0.46;48.01;98563.83;2218541;80;21526;-78
2021/03/21 07:48:51;;;;;;;27.07;12.77;;;;;;;0.64;48.27;98562.98;2218260;80;21256;-76
2021/03/21 07:51:54;;;;;;;22.57;12.60;;;;;;;0.83;48.54;98558.69;2218234;80;21146;-77
2021/03/21 07:54:55;;;;;;;20.83;11.80;;;;;;;0.95;48.41;98556.30;2218152;80;21268;-78
2021/03/21 07:57:56;;;;;;;29.53;12.50;;;;;;;1.12;48.28;98549.73;2218627;80;21110;-78
2021/03/21 08:00:57;;;;;;;30.83;12.30;;;;;;;1.72;58.39;98545.45;2218592;80;21244;-78
2021/03/21 08:03:58;;;;;;;24.27;12.60;;;;;;;5.05;58.77;98534.09;2218830;80;21106;-78
2021/03/21 08:06:59;;;;;;;28.97;12.03;;;;;;;7.92;54.31;98521.36;2219092;80;21110;-78
2021/03/21 08:10:01;;;;;;;25.97;11.67;;;;;;;10.19;51.70;98504.34;2218745;80;21269;-78
2021/03/21 08:13:02;;;;;;;21.83;11.70;;;;;;;11.58;42.67;98496.43;2218703;80;21228;-78
2021/03/21 08:16:05;;;;;;;27.30;11.00;;;;;;;11.86;42.50;98493.03;2218651;80;21396;-78
2021/03/21 08:19:06;;;;;;;25.30;11.50;;;;;;;11.71;41.16;98494.28;2218465;80;21138;-78
2021/03/21 08:22:07;;;;;;;16.23;10.57;;;;;;;12.10;40.77;98481.27;2218591;80;21240;-78
2021/03/21 08:25:08;;;;;;;19.60;11.87;;;;;;;11.01;33.26;98486.20;2218478;80;21395;-77
2021/03/21 08:28:09;;;;;;;17.20;9.83;;;;;;;8.06;36.44;98498.19;2218739;80;21134;-77
2021/03/21 08:31:10;;;;;;;19.70;11.27;;;;;;;5.74;39.20;98504.91;2218395;80;21170;-78
2021/03/21 08:34:11;;;;;;;18.10;10.93;;;;;;;4.19;41.77;98501.72;2218700;80;21117;-79
2021/03/21 08:37:12;;;;;;;29.43;13.30;;;;;;;3.37;44.13;98503.30;2216451;80;21142;-79
2021/03/21 08:40:13;;;;;;;29.33;12.20;;;;;;;2.67;45.92;98501.20;2211600;80;21130;-78
2021/03/21 08:43:15;;;;;;;19.47;12.07;;;;;;;2.20;47.39;98499.83;2211405;80;21110;-78
2021/03/21 08:46:16;;;;;;;22.50;12.27;;;;;;;1.89;49.08;98493.88;2211293;80;21126;-78
2021/03/21 08:49:17;;;;;;;17.57;10.60;;;;;;;1.75;49.82;98489.88;2211427;81;21150;-78
2021/03/21 08:52:18;;;;;;;17.60;11.27;;;;;;;1.52;51.58;98481.19;2211669;80;21236;-79
2021/03/21 08:55:19;;;;;;;21.30;12.07;;;;;;;1.41;52.37;98489.27;2211505;80;21106;-77
2021/03/21 08:58:20;;;;;;;22.93;10.37;;;;;;;1.32;52.11;98478.19;2211273;80;21123;-77
2021/03/21 09:01:21;;;;;;;23.63;11.03;;;;;;;1.36;53.59;98469.79;2211213;80;21237;-78
2021/03/21 09:04:22;;;;;;;17.80;10.93;;;;;;;1.34;53.41;98468.84;2211280;80;21126;-78
2021/03/21 09:07:24;;;;;;;24.90;11.53;;;;;;;1.38;53.68;98459.56;2211011;80;21118;-79
2021/03/21 09:10:25;;;;;;;17.63;10.33;;;;;;;1.49;53.75;98463.46;2211317;80;21269;-79
2021/03/21 09:13:27;;;;;;;20.47;10.30;;;;;;;1.55;52.83;98463.30;2210949;80;21217;-78
2021/03/21 09:16:29;;;;;;;21.17;11.43;;;;;;;1.49;53.11;98458.31;2210900;81;21523;-78
2021/03/21 09:19:30;;;;;;;17.33;11.33;;;;;;;1.46;53.00;98468.07;2210969;80;21253;-78
2021/03/21 09:22:31;;;;;;;24.93;12.77;;;;;;;1.47;52.77;98462.52;2211026;80;21507;-78
2021/03/21 09:25:32;;;;;;;21.87;11.93;;;;;;;1.46;52.73;98459.48;2210974;80;21391;-78
2021/03/21 09:28:33;;;;;;;19.87;11.50;;;;;;;1.55;52.72;98450.44;2211194;80;21114;-78
2021/03/21 09:31:34;;;;;;;20.17;12.20;;;;;;;1.65;52.30;98445.26;2211010;80;21281;-78
2021/03/21 09:34:35;;;;;;;20.70;11.67;;;;;;;1.67;51.99;98444.91;2211192;80;21356;-79
2021/03/21 09:37:37;;;;;;;19.43;11.67;;;;;;;1.69;52.41;98445.85;2212156;80;21185;-79
2021/03/21 09:40:38;;;;;;;23.00;12.53;;;;;;;1.66;52.22;98441.87;2217596;80;21407;-78
2021/03/21 09:43:39;;;;;;;24.73;11.90;;;;;;;1.64;52.38;98444.79;2218552;80;21118;-79
2021/03/21 09:46:40;;;;;;;22.53;12.30;;;;;;;1.65;52.41;98445.66;2218538;80;21232;-79
2021/03/21 09:49:41;;;;;;;20.70;10.77;;;;;;;1.71;52.43;98443.34;2218044;80;21414;-79
2021/03/21 09:52:42;;;;;;;22.20;12.73;;;;;;;1.72;52.77;98445.97;2218375;80;21241;-79
2021/03/21 09:55:46;;;;;;;28.83;13.80;;;;;;;1.93;52.80;98439.95;2218340;80;21511;-79
2021/03/21 09:58:47;;;;;;;33.20;14.47;;;;;;;2.11;53.04;98437.67;2218568;80;21102;-78
2021/03/21 10:01:48;;;;;;;20.80;13.00;;;;;;;2.30;53.86;98436.67;2218300;80;21506;-79
2021/03/21 10:04:49;;;;;;;24.27;13.83;;;;;;;2.39;54.66;98435.73;2217652;80;21541;-79
2021/03/21 10:07:50;;;;;;;21.57;13.53;;;;;;;2.43;55.71;98432.45;2218491;80;21213;-80
2021/03/21 10:10:51;;;;;;;19.93;13.40;;;;;;;2.27;56.51;98433.98;2219102;80;21434;-79
2021/03/21 10:13:53;;;;;;;21.23;12.40;;;;;;;1.94;56.26;98430.13;2218917;80;21402;-80
2021/03/21 10:16:54;;;;;;;29.90;13.93;;;;;;;1.65;57.74;98430.23;2218959;80;21083;-79
2021/03/21 10:19:55;;;;;;;21.70;14.33;;;;;;;1.42;58.04;98426.33;2219328;80;21129;-80
2021/03/21 10:22:56;;;;;;;26.47;13.53;;;;;;;1.31;58.33;98426.30;2218705;80;21145;-79
2021/03/21 10:25:57;;;;;;;26.93;14.10;;;;;;;1.26;58.72;98437.67;2218922;80;21403;-78
2021/03/21 10:28:58;;;;;;;25.07;15.20;;;;;;;1.27;59.30;98435.58;2219045;80;21126;-79
2021/03/21 10:32:01;;;;;;;27.73;14.33;;;;;;;1.23;58.80;98431.12;2218673;80;21149;-80
2021/03/21 10:35:02;;;;;;;23.37;13.43;;;;;;;1.13;59.22;98425.53;2219200;80;21241;-80
2021/03/21 10:38:03;;;;;;;22.30;13.00;;;;;;;1.10;60.12;98416.00;2215950;80;21134;-79
2021/03/21 10:41:05;;;;;;;31.67;15.03;;;;;;;1.20;59.85;98420.70;2212260;81;21114;-79
2021/03/21 10:44:06;;;;;;;26.30;13.47;;;;;;;1.34;59.00;98412.69;2211932;80;21130;-80
2021/03/21 10:47:07;;;;;;;28.87;15.40;;;;;;;1.46;59.41;98406.75;2210719;80;21141;-79
2021/03/21 10:50:10;;;;;;;25.70;14.63;;;;;;;1.43;59.03;98406.22;2211782;81;21146;-79
2021/03/21 10:53:11;;;;;;;24.60;15.17;;;;;;;1.48;58.51;98405.12;2211945;80;21133;-80
2021/03/21 10:56:13;;;;;;;26.00;14.10;;;;;;;1.56;58.93;98406.30;2212004;80;21237;-80
2021/03/21 10:59:14;;;;;;;28.00;15.70;;;;;;;1.63;58.28;98395.84;2212042;80;21142;-80
2021/03/21 11:02:16;;;;;;;30.27;15.27;;;;;;;1.67;58.15;98389.59;2211457;81;21113;-79
2021/03/21 11:05:17;;;;;;;26.03;13.90;;;;;;;1.65;58.19;98387.38;2210479;81;21122;-79
2021/03/21 11:08:18;;;;;;;24.47;14.60;;;;;;;1.61;58.35;98391.92;2210921;80;21264;-78
2021/03/21 11:11:19;;;;;;;31.37;17.87;;;;;;;1.54;58.30;98395.07;2210900;81;21269;-79
2021/03/21 11:14:20;;;;;;;22.30;13.33;;;;;;;1.54;58.83;98392.50;2211702;80;21134;-79
2021/03/21 11:17:23;;;;;;;22.27;12.93;;;;;;;1.63;58.53;98381.70;2211311;80;21149;-80
2021/03/21 11:20:24;;;;;;;24.77;14.83;;;;;;;1.56;58.58;98380.58;2210882;81;21169;-78
2021/03/21 11:23:25;;;;;;;26.23;15.40;;;;;;;1.51;59.10;98372.68;2210202;80;21106;-78
2021/03/21 11:26:26;;;;;;;27.23;14.97;;;;;;;1.50;58.88;98363.20;2210926;80;21244;-79
2021/03/21 11:29:28;;;;;;;28.77;16.63;;;;;;;1.48;59.36;98366.12;2211742;81;21110;-79
2021/03/21 11:32:30;;;;;;;26.00;14.53;;;;;;;1.54;59.24;98362.92;2211722;80;21118;-79
2021/03/21 11:35:31;;;;;;;32.43;17.23;;;;;;;1.67;59.24;98350.13;2211749;80;21442;-79
2021/03/21 11:38:32;;;;;;;51.10;20.57;;;;;;;1.75;58.97;98357.35;2215321;80;21149;-78
2021/03/21 11:41:36;;;;;;;30.20;15.90;;;;;;;1.76;59.02;98358.23;2217948;80;21275;-79
2021/03/21 11:44:37;;;;;;;27.42;17.07;;;;;;;1.89;58.97;98355.30;2219011;80;21451;-79
2021/03/21 11:47:38;;;;;;;33.23;17.80;;;;;;;1.94;58.76;98352.91;2218325;80;21198;-79
2021/03/21 11:50:39;;;;;;;42.07;20.73;;;;;;;2.06;58.39;98344.35;2218627;80;21138;-79
2021/03/21 11:53:40;;;;;;;30.43;17.73;;;;;;;2.20;58.59;98346.61;2219146;80;21138;-79
2021/03/21 11:56:41;;;;;;;33.93;17.57;;;;;;;2.38;58.43;98334.80;2218486;80;21237;-78
2021/03/21 11:59:42;;;;;;;26.17;15.90;;;;;;;2.55;58.04;98329.83;2218293;80;21117;-77
2021/03/21 12:02:44;;;;;;;26.63;17.20;;;;;;;2.69;57.83;98322.61;2218443;80;21110;-78
2021/03/21 12:05:45;;;;;;;34.37;17.47;;;;;;;2.52;57.80;98331.42;2218214;80;21260;-78
2021/03/21 12:08:46;;;;;;;23.40;15.70;;;;;;;2.31;58.93;98335.41;2218420;80;21240;-79
2021/03/21 12:11:47;;;;;;;30.83;16.60;;;;;;;2.10;59.24;98334.63;2218274;80;21117;-77
2021/03/21 12:14:49;;;;;;;27.70;17.27;;;;;;;2.03;59.57;98324.52;2218492;80;21134;-78
2021/03/21 12:17:50;;;;;;;26.87;17.17;;;;;;;2.08;59.54;98311.41;2218072;80;21240;-77
2021/03/21 12:20:51;;;;;;;32.27;19.10;;;;;;;2.11;59.56;98310.23;2217716;80;21264;-77
2021/03/21 12:23:52;;;;;;;32.13;19.30;;;;;;;2.20;59.57;98314.83;2217250;80;21253;-78
2021/03/21 12:26:53;;;;;;;31.67;17.20;;;;;;;2.37;59.39;98308.58;2217990;80;21086;-77
2021/03/21 12:29:55;;;;;;;32.90;18.63;;;;;;;2.50;59.08;98300.87;2218107;80;21276;-77
2021/03/21 12:32:56;;;;;;;33.73;18.20;;;;;;;2.59;58.83;98293.45;2218028;80;21531;-77
2021/03/21 12:35:57;;;;;;;33.33;21.23;;;;;;;2.70;58.47;98289.98;2217127;80;21256;-76
2021/03/21 12:38:59;;;;;;;32.80;20.20;;;;;;;2.75;58.56;98287.16;2213232;80;21261;-77
2021/03/21 12:42:00;;;;;;;31.77;20.30;;;;;;;2.78;58.18;98279.52;2210764;81;21132;-76
2021/03/21 12:45:02;;;;;;;40.40;21.87;;;;;;;2.83;58.11;98279.27;2210818;80;21122;-76
2021/03/21 12:48:03;;;;;;;38.20;22.23;;;;;;;2.88;57.85;98282.86;2209547;80;21126;-77
2021/03/21 12:51:04;;;;;;;32.30;18.33;;;;;;;2.76;57.71;98280.77;2209429;80;21271;-77
2021/03/21 12:54:06;;;;;;;29.83;17.30;;;;;;;2.67;57.57;98271.44;2209346;81;21261;-78
2021/03/21 12:57:10;;;;;;;29.97;19.43;;;;;;;2.59;57.77;98263.83;2209789;80;21154;-77
2021/03/21 13:00:10;;;;;;;30.50;19.90;;;;;;;2.67;58.07;98262.83;2209870;81;21614;-77
2021/03/21 13:03:11;;;;;;;32.33;19.60;;;;;;;2.76;58.03;98263.13;2210406;80;21126;-79
2021/03/21 13:06:12;;;;;;;28.67;17.37;;;;;;;2.85;58.15;98263.44;2210339;80;21095;-78
2021/03/21 13:09:13;;;;;;;27.30;17.13;;;;;;;2.97;58.23;98248.36;2208771;80;21444;-78
2021/03/21 13:12:14;;;;;;;31.50;18.17;;;;;;;3.11;58.07;98239.77;2210776;80;21164;-78
2021/03/21 13:15:16;;;;;;;33.23;20.57;;;;;;;3.31;57.74;98237.81;2209841;80;21241;-77
2021/03/21 13:18:19;;;;;;;35.97;21.07;;;;;;;3.42;58.08;98233.84;2210739;80;21083;-77
2021/03/21 13:21:20;;;;;;;25.03;16.27;;;;;;;3.50;58.27;98240.14;2210428;80;21261;-76
2021/03/21 13:24:21;;;;;;;35.97;21.60;;;;;;;3.53;58.17;98241.52;2210104;80;21118;-77
2021/03/21 13:27:22;;;;;;;34.57;21.93;;;;;;;3.34;58.10;98232.73;2210490;80;21340;-76
2021/03/21 13:30:23;;;;;;;35.83;21.53;;;;;;;3.23;58.87;98234.12;2210667;80;21260;-77
2021/03/21 13:33:28;;;;;;;37.80;21.87;;;;;;;3.16;58.72;98239.09;2210756;80;21232;-77
2021/03/21 13:36:29;;;;;;;36.17;20.77;;;;;;;3.04;58.61;98229.68;2210910;80;21107;-77
2021/03/21 13:39:33;;;;;;;35.57;21.27;;;;;;;2.94;59.22;98216.45;2210470;80;21263;-77
2021/03/21 13:42:34;;;;;;;36.00;23.18;;;;;;;2.93;59.52;98216.86;2211262;80;21224;-77
2021/03/21 13:45:35;;;;;;;41.97;22.13;;;;;;;2.90;59.73;98223.63;2210694;80;21114;-79
2021/03/21 13:48:37;;;;;;;41.97;24.23;;;;;;;2.87;60.29;98216.67;2210667;80;21256;-79
2021/03/21 13:51:39;;;;;;;42.70;23.53;;;;;;;2.76;60.84;98218.03;2211035;81;21158;-78
2021/03/21 13:54:40;;;;;;;46.27;24.63;;;;;;;2.73;60.88;98206.33;2210855;80;21384;-77
2021/03/21 13:57:41;;;;;;;43.37;25.03;;;;;;;2.76;61.54;98205.14;2210982;80;21134;-77
2021/03/21 14:00:42;;;;;;;47.47;24.40;;;;;;;2.75;61.18;98205.55;2211614;80;21109;-78